Station: EBLG - 24/04/2019 08:50Z (il y a 9 minutes)
EBLG 240850Z 19015KT 150V230 9999 FEW040 19/08 Q0999 NOSIG
Vent du 190º - 15 kt (vent de direction variable de 150º à 230º)
Visibilité > 10 km
Nuages épars à 4000 pieds
Température: +19ºC - Point de rosée: +08ºC - QNH: 999 hPa
Pas de changement significatif prévu dans les 2 heures qui suivent l'observation